Time;durP1;ratioP1;P1;durP2;ratioP2;P2;SDS_P1;SDS_P2;PMS_P1;PMS_P2;Temp;Humidity;BMP_temperature;BMP_pressure;BME280_temperature;BME280_humidity;BME280_pressure;Samples;Min_cycle;Max_cycle;Signal;HPM_P1;HPM_P2
2023/11/17 00:01:04;;;;;;;;;7.50;5.00;;;;;12.40;65.75;101274.00;146628;587;47010;-68
2023/11/17 00:03:59;;;;;;;;;8.00;7.00;;;;;12.35;65.57;101272.84;146622;589;46023;-67
2023/11/17 00:06:56;;;;;;;;;7.50;6.00;;;;;12.32;65.42;101280.50;146628;593;47010;-69
2023/11/17 00:09:56;;;;;;;;;6.50;5.75;;;;;12.26;66.06;101269.75;146625;570;46012;-68
2023/11/17 00:12:48;;;;;;;;;9.00;8.00;;;;;12.20;65.80;101265.13;146626;598;47010;-68
2023/11/17 00:15:42;;;;;;;;;8.50;8.50;;;;;12.16;65.56;101267.50;146623;576;46013;-68
2023/11/17 00:18:41;;;;;;;;;11.00;9.50;;;;;12.14;65.59;101269.09;146622;569;46020;-69
2023/11/17 00:21:37;;;;;;;;;12.50;9.00;;;;;12.10;65.77;101273.25;146620;607;46025;-69
2023/11/17 00:24:38;;;;;;;;;13.25;12.25;;;;;12.05;65.90;101279.00;146627;612;46021;-68
2023/11/17 00:27:54;;;;;;;;;9.25;8.00;;;;;11.91;65.05;101271.37;146623;564;46012;-68
2023/11/17 00:30:49;;;;;;;;;9.25;9.00;;;;;11.84;66.30;101261.44;146624;570;46010;-69
2023/11/17 00:33:48;;;;;;;;;9.00;8.00;;;;;11.78;66.52;101264.56;146624;607;48012;-70
2023/11/17 00:36:46;;;;;;;;;8.25;8.25;;;;;11.72;66.25;101253.84;146624;596;46010;-71
2023/11/17 00:39:41;;;;;;;;;8.00;6.50;;;;;11.71;67.42;101252.06;146622;686;46016;-72
2023/11/17 00:42:41;;;;;;;;;7.25;6.00;;;;;11.73;67.37;101252.12;146617;582;47020;-69
2023/11/17 00:45:38;;;;;;;;;4.50;4.00;;;;;11.68;67.44;101248.38;146625;575;46013;-70
2023/11/17 00:48:49;;;;;;;;;5.50;4.75;;;;;11.66;66.26;101242.22;146626;596;46918;-69
2023/11/17 00:51:49;;;;;;;;;4.75;4.75;;;;;11.58;67.68;101246.97;146627;579;46013;-69
2023/11/17 00:54:49;;;;;;;;;4.00;3.00;;;;;11.47;68.68;101253.31;146629;643;46020;-70
2023/11/17 00:57:51;;;;;;;;;2.75;2.75;;;;;11.40;69.39;101248.56;146623;586;46016;-71
2023/11/17 01:00:48;;;;;;;;;4.00;4.00;;;;;11.41;69.40;101252.97;146628;602;46021;-70
2023/11/17 01:03:40;;;;;;;;;3.50;3.25;;;;;11.37;70.37;101236.31;146625;577;46016;-70
2023/11/17 01:06:34;;;;;;;;;4.00;3.00;;;;;11.39;70.73;101226.87;146626;601;46021;-69
2023/11/17 01:09:30;;;;;;;;;4.75;3.75;;;;;11.42;70.21;101224.47;146621;601;47016;-69
2023/11/17 01:12:22;;;;;;;;;4.75;1.50;;;;;11.47;70.80;101230.81;146629;597;46020;-69
2023/11/17 01:15:15;;;;;;;;;3.75;3.75;;;;;11.50;69.78;101223.19;146622;574;46016;-67
2023/11/17 01:18:12;;;;;;;;;3.00;3.00;;;;;11.54;69.82;101217.34;146627;569;46020;-67
2023/11/17 01:21:13;;;;;;;;;4.75;3.50;;;;;11.54;69.52;101222.56;146626;585;46016;-69
2023/11/17 01:24:12;;;;;;;;;4.00;4.00;;;;;11.56;69.31;101213.16;146629;591;46014;-66
2023/11/17 01:27:13;;;;;;;;;4.00;2.75;;;;;11.61;69.63;101197.81;146618;602;47914;-67
2023/11/17 01:30:11;;;;;;;;;4.50;4.50;;;;;11.68;69.40;101210.34;146617;591;46021;-67
2023/11/17 01:33:08;;;;;;;;;3.00;2.00;;;;;11.73;68.97;101208.88;146612;565;46016;-67
2023/11/17 01:36:03;;;;;;;;;4.00;4.00;;;;;11.76;68.73;101219.41;146613;593;46020;-65
2023/11/17 01:39:09;;;;;;;;;2.25;2.25;;;;;11.74;67.32;101226.25;146612;611;46016;-66
2023/11/17 01:42:06;;;;;;;;;3.25;3.25;;;;;11.69;68.45;101227.69;146613;569;47014;-67
2023/11/17 01:44:59;;;;;;;;;5.75;4.75;;;;;11.61;68.60;101225.50;146613;626;46915;-67
2023/11/17 01:48:02;;;;;;;;;2.50;2.50;;;;;11.50;69.45;101225.81;146616;569;47020;-66
2023/11/17 01:51:07;;;;;;;;;;;;;;;;;;;;;
2023/11/17 01:54:07;;;;;;;;;4.00;3.00;;;;;11.32;69.94;101236.03;146612;577;46020;-69
2023/11/17 01:57:09;;;;;;;;;4.00;3.00;;;;;11.26;69.20;101243.47;146614;571;46012;-68
2023/11/17 02:00:15;;;;;;;;;4.75;3.50;;;;;11.24;69.85;101234.69;146614;574;47014;-68
2023/11/17 02:03:23;;;;;;;;;;;;;;;;;;;;;
2023/11/17 02:06:58;;;;;;;;;4.00;3.00;;;;;11.19;68.96;101223.19;146615;596;46010;-66
2023/11/17 02:10:42;;;;;;;;;4.25;3.25;;;;;11.17;68.02;101219.59;146611;613;46016;-69
2023/11/17 02:14:08;;;;;;;;;5.00;5.00;;;;;11.20;69.14;101232.75;146613;636;47021;-68
2023/11/17 02:17:15;;;;;;;;;3.00;3.00;;;;;11.23;70.32;101229.44;146610;578;46912;-67
2023/11/17 02:20:19;;;;;;;;;3.75;3.75;;;;;11.23;70.19;101224.25;146615;585;46020;-67
2023/11/17 02:23:17;;;;;;;;;6.25;6.25;;;;;11.22;70.01;101238.06;146612;640;47024;-67
2023/11/17 02:26:43;;;;;;;;;50.50;38.75;;;;;11.15;68.67;101226.41;146606;593;46020;-67
2023/11/17 02:29:44;;;;;;;;;90.00;75.00;;;;;11.15;70.75;101233.28;146605;596;46017;-67
2023/11/17 02:32:55;;;;;;;;;50.75;40.00;;;;;11.17;69.94;101222.19;146611;605;46020;-70
2023/11/17 02:35:55;;;;;;;;;67.00;48.75;;;;;11.17;70.92;101218.72;146604;677;46017;-69
2023/11/17 02:39:36;;;;;;;;;59.75;46.00;;;;;11.16;69.29;101199.66;146608;598;46020;-70
2023/11/17 02:42:37;;;;;;;;;33.50;28.50;;;;;11.17;71.29;101200.53;146603;736;48014;-69
2023/11/17 02:45:36;;;;;;;;;23.25;21.50;;;;;11.18;70.87;101204.91;146609;654;47010;-68
2023/11/17 02:48:38;;;;;;;;;12.50;12.00;;;;;11.21;71.06;101208.56;146608;620;47014;-67
2023/11/17 02:51:43;;;;;;;;;8.75;8.75;;;;;11.26;70.17;101214.94;146618;569;46010;-67
2023/11/17 02:54:36;;;;;;;;;12.50;10.25;;;;;11.31;70.90;101204.81;146607;599;46016;-68
2023/11/17 02:57:36;;;;;;;;;26.75;23.50;;;;;11.36;71.33;101202.47;146606;596;46020;-68
2023/11/17 03:00:45;;;;;;;;;34.25;25.75;;;;;11.36;69.84;101203.34;146604;652;46016;-68
2023/11/17 03:03:43;;;;;;;;;25.25;21.75;;;;;11.39;71.07;101206.13;146607;613;46014;-69
2023/11/17 03:06:45;;;;;;;;;36.50;29.00;;;;;11.44;70.94;101212.47;146602;626;47014;-69
2023/11/17 03:09:46;;;;;;;;;24.75;20.25;;;;;11.44;70.45;101215.06;146610;569;46010;-69
2023/11/17 03:12:41;;;;;;;;;26.50;24.00;;;;;11.42;70.45;101224.47;146605;607;46013;-66
2023/11/17 03:15:38;;;;;;;;;23.75;19.50;;;;;11.39;71.12;101220.81;146605;578;47042;-67
2023/11/17 03:18:38;;;;;;;;;24.00;21.25;;;;;11.31;71.47;101220.41;146603;563;47016;-67
2023/11/17 03:21:37;;;;;;;;;18.25;15.50;;;;;11.24;71.09;101221.72;146608;649;46021;-67
2023/11/17 03:24:49;;;;;;;;;24.00;18.25;;;;;11.23;71.21;101230.34;146604;628;46012;-68
2023/11/17 03:27:50;;;;;;;;;21.00;17.75;;;;;11.20;71.79;101224.97;146607;564;46020;-69
2023/11/17 03:30:46;;;;;;;;;28.50;22.75;;;;;11.15;71.15;101231.59;146605;773;46016;-69
2023/11/17 03:33:43;;;;;;;;;28.75;25.00;;;;;11.18;71.63;101223.09;146605;585;46020;-68
2023/11/17 03:36:35;;;;;;;;;39.25;32.50;;;;;11.18;71.67;101213.59;146602;590;47017;-68
2023/11/17 03:39:32;;;;;;;;;44.50;33.00;;;;;11.15;71.13;101213.41;146608;619;47010;-68
2023/11/17 03:42:24;;;;;;;;;35.25;28.25;;;;;11.18;71.50;101223.09;146609;594;47012;-69
2023/11/17 03:45:19;;;;;;;;;28.50;22.50;;;;;11.17;70.97;101224.78;146605;585;46020;-70
2023/11/17 03:48:11;;;;;;;;;17.25;14.00;;;;;11.12;71.09;101218.47;146604;586;46914;-68
2023/11/17 03:51:12;;;;;;;;;17.00;14.00;;;;;11.07;70.95;101214.69;146606;610;47020;-70
2023/11/17 03:54:07;;;;;;;;;12.50;12.00;;;;;11.00;71.52;101216.06;146604;581;47914;-69
2023/11/17 03:57:03;;;;;;;;;14.75;13.50;;;;;10.92;71.28;101219.91;146610;603;46010;-67
2023/11/17 03:59:59;;;;;;;;;14.50;13.25;;;;;10.85;71.80;101217.78;146608;569;46014;-68
2023/11/17 04:03:05;;;;;;;;;12.50;12.00;;;;;10.81;71.98;101219.31;146610;577;46020;-68
2023/11/17 04:06:03;;;;;;;;;11.50;10.75;;;;;10.75;71.82;101216.34;146606;605;46017;-68
2023/11/17 04:09:00;;;;;;;;;18.75;15.50;;;;;10.71;72.49;101216.06;146608;563;46047;-67
2023/11/17 04:12:01;;;;;;;;;15.00;13.75;;;;;10.69;72.16;101215.09;146604;649;47915;-68
2023/11/17 04:14:56;;;;;;;;;18.75;16.00;;;;;10.66;72.72;101217.50;146607;581;46020;-68
2023/11/17 04:18:05;;;;;;;;;25.25;21.75;;;;;10.63;73.39;101208.75;146605;570;46012;-68
2023/11/17 04:21:01;;;;;;;;;45.50;34.00;;;;;10.60;73.44;101195.59;146604;573;46021;-67
2023/11/17 04:24:07;;;;;;;;;33.75;30.50;;;;;10.60;73.60;101186.91;146606;608;46014;-66
2023/11/17 04:27:01;;;;;;;;;32.75;25.75;;;;;10.63;73.42;101182.81;146606;557;46021;-66
2023/11/17 04:29:56;;;;;;;;;36.75;31.00;;;;;10.67;73.34;101178.69;146605;616;46014;-66
2023/11/17 04:32:54;;;;;;;;;35.25;29.00;;;;;10.74;73.05;101165.25;146607;610;46010;-67
2023/11/17 04:35:46;;;;;;;;;28.00;25.50;;;;;10.77;73.97;101157.66;146605;595;46014;-67
2023/11/17 04:38:47;;;;;;;;;27.25;22.50;;;;;10.79;73.56;101168.13;146610;746;46010;-65
2023/11/17 04:41:40;;;;;;;;;28.25;26.00;;;;;10.83;73.58;101160.59;146605;615;47915;-65
2023/11/17 04:44:36;;;;;;;;;26.50;23.00;;;;;10.91;73.31;101178.31;146608;661;47010;-67
2023/11/17 04:47:31;;;;;;;;;28.00;21.00;;;;;10.98;73.91;101177.84;146605;575;46012;-67
2023/11/17 04:50:46;;;;;;;;;22.25;18.25;;;;;11.04;73.30;101173.00;146605;590;47010;-67
2023/11/17 04:53:42;;;;;;;;;24.00;19.25;;;;;11.03;73.95;101176.44;146605;565;47014;-67
2023/11/17 04:56:38;;;;;;;;;22.75;19.50;;;;;11.04;73.91;101178.19;146605;610;46015;-67
2023/11/17 04:59:33;;;;;;;;;21.00;18.50;;;;;11.08;74.19;101175.84;146604;564;46014;-67
2023/11/17 05:02:32;;;;;;;;;22.50;18.00;;;;;11.13;73.57;101178.72;146607;575;46020;-67
2023/11/17 05:05:49;;;;;;;;;18.00;17.50;;;;;11.14;73.92;101170.13;146600;661;46017;-67
2023/11/17 05:08:53;;;;;;;;;21.25;18.00;;;;;11.17;73.38;101159.00;146607;603;46020;-66
2023/11/17 05:11:48;;;;;;;;;22.75;20.00;;;;;11.19;73.52;101157.41;146605;597;46017;-67
2023/11/17 05:14:46;;;;;;;;;23.25;20.75;;;;;11.14;74.09;101151.94;146606;569;46020;-67
2023/11/17 05:17:48;;;;;;;;;20.25;17.50;;;;;11.09;73.72;101149.13;146606;602;46016;-67
2023/11/17 05:20:56;;;;;;;;;24.00;21.50;;;;;11.07;73.71;101149.81;146606;667;46021;-67
2023/11/17 05:23:49;;;;;;;;;21.25;19.00;;;;;11.05;73.35;101146.25;146604;564;47012;-66
2023/11/17 05:26:50;;;;;;;;;21.50;19.25;;;;;11.04;73.57;101140.16;146610;723;46021;-66
2023/11/17 05:29:44;;;;;;;;;25.25;21.75;;;;;11.00;74.33;101122.66;146605;586;46016;-66
2023/11/17 05:32:37;;;;;;;;;25.25;23.75;;;;;10.95;74.19;101121.47;146607;580;46010;-66
2023/11/17 05:35:40;;;;;;;;;21.50;18.25;;;;;10.93;74.00;101120.50;146602;583;46012;-67
2023/11/17 05:38:38;;;;;;;;;56.25;45.25;;;;;10.92;74.26;101125.63;146605;685;46020;-71
2023/11/17 05:41:51;;;;;;;;;27.50;20.00;;;;;10.88;74.65;101118.47;146605;574;46013;-68
2023/11/17 05:44:45;;;;;;;;;23.00;21.75;;;;;10.85;74.56;101107.09;146609;683;46010;-68
2023/11/17 05:47:50;;;;;;;;;20.50;17.50;;;;;9.27;73.10;100824.25;146602;581;47015;-68
2023/11/17 05:50:46;;;;;;;;;17.50;17.25;;;;;11.05;76.93;101094.34;146609;575;46020;-68
2023/11/17 05:53:41;;;;;;;;;23.25;19.00;;;;;11.98;80.28;101101.94;146604;692;46016;-69
2023/11/17 05:56:43;;;;;;;;;22.25;18.50;;;;;13.14;77.89;101082.44;146609;683;46021;-68
2023/11/17 05:59:42;;;;;;;;;18.75;16.00;;;;;14.28;74.59;101068.44;146601;578;46016;-70
2023/11/17 06:02:46;;;;;;;;;23.00;18.50;;;;;15.41;68.60;101073.75;146609;595;46020;-70
2023/11/17 06:05:38;;;;;;;;;20.50;18.25;;;;;16.54;62.97;101069.91;146602;579;47010;-70
2023/11/17 06:08:34;;;;;;;;;18.00;15.50;;;;;17.48;62.82;101065.81;146608;581;47020;-69
2023/11/17 06:11:32;;;;;;;;;20.25;17.00;;;;;18.34;56.78;101054.13;146605;625;46017;-69
2023/11/17 06:14:33;;;;;;;;;22.50;19.00;;;;;18.37;54.47;101060.31;146604;597;47014;-70
2023/11/17 06:17:27;;;;;;;;;19.50;17.50;;;;;17.99;54.43;101049.75;146604;598;47013;-70
2023/11/17 06:20:28;;;;;;;;;21.25;20.00;;;;;17.44;54.91;101045.56;146607;581;46021;-71
2023/11/17 06:23:21;;;;;;;;;19.00;19.00;;;;;16.87;56.23;101053.50;146604;591;46016;-70
2023/11/17 06:26:13;;;;;;;;;62.00;49.75;;;;;16.32;57.91;101046.47;146606;628;46021;-70
2023/11/17 06:29:09;;;;;;;;;23.50;20.50;;;;;15.91;58.80;101044.22;146604;565;46016;-69
2023/11/17 06:32:02;;;;;;;;;24.50;19.25;;;;;15.54;60.38;101044.59;146606;603;46020;-69
2023/11/17 06:34:56;;;;;;;;;21.25;19.75;;;;;15.33;63.05;101055.19;146604;564;47012;-69
2023/11/17 06:38:02;;;;;;;;;24.00;18.50;;;;;15.30;64.51;101039.41;146606;573;46014;-69
2023/11/17 06:41:00;;;;;;;;;26.50;20.75;;;;;15.21;63.10;101037.31;146600;746;48013;-69
2023/11/17 06:44:04;;;;;;;;;;;;;;;;;;;;;
2023/11/17 06:47:00;;;;;;;;;26.25;24.75;;;;;15.11;66.36;101030.00;146601;666;48912;-68
2023/11/17 06:50:04;;;;;;;;;26.25;22.00;;;;;15.28;66.56;101034.94;146608;565;45021;-69
2023/11/17 06:53:00;;;;;;;;;22.50;20.00;;;;;15.50;65.06;101021.81;146603;569;47012;-68
2023/11/17 06:56:05;;;;;;;;;21.00;19.25;;;;;15.73;64.77;101027.88;146606;604;46021;-69
2023/11/17 06:59:00;;;;;;;;;22.75;20.50;;;;;15.95;63.21;101024.31;146603;566;46914;-69
2023/11/17 07:01:57;;;;;;;;;31.50;28.00;;;;;16.05;62.58;101021.16;146606;595;46021;-70
2023/11/17 07:04:58;;;;;;;;;25.00;21.25;;;;;16.04;61.86;101023.72;146604;608;46016;-70
2023/11/17 07:07:49;;;;;;;;;27.50;22.75;;;;;15.99;61.94;101031.44;146608;563;46010;-69
2023/11/17 07:11:00;;;;;;;;;27.75;25.25;;;;;15.96;61.34;101025.22;146604;619;46017;-66
2023/11/17 07:14:07;;;;;;;;;23.50;20.75;;;;;15.92;61.75;101032.94;146606;563;46010;-67
2023/11/17 07:17:05;;;;;;;;;30.00;24.25;;;;;15.85;61.86;101012.63;146604;577;46013;-67
2023/11/17 07:20:21;;;;;;;;;;;;;;;;;;;;;
2023/11/17 07:23:28;;;;;;;;;27.25;23.75;;;;;15.96;62.04;101012.12;146604;616;46016;-68
2023/11/17 07:26:43;;;;;;;;;25.50;24.00;;;;;14.60;61.43;100762.69;146605;732;46021;-66
2023/11/17 07:29:36;;;;;;;;;25.25;22.75;;;;;16.17;60.88;101012.84;146602;592;46012;-68
2023/11/17 07:32:40;;;;;;;;;24.00;21.00;;;;;16.23;60.77;101014.75;146608;592;47010;-68
2023/11/17 07:35:35;;;;;;;;;23.25;20.50;;;;;16.22;61.11;101005.12;146605;666;46916;-67
2023/11/17 07:38:29;;;;;;;;;23.00;19.50;;;;;16.20;60.72;100998.94;146608;662;46010;-67
2023/11/17 07:41:30;;;;;;;;;22.00;20.75;;;;;16.22;61.26;100992.94;146603;672;46016;-67
2023/11/17 07:44:47;;;;;;;;;20.00;20.00;;;;;16.29;60.54;101002.78;146605;582;46020;-66
2023/11/17 07:47:33;;;;;;;;;23.50;19.50;;;;;16.43;62.63;101003.22;146702;565;46022;-67
2023/11/17 07:50:40;;;;;;;;;20.25;17.25;;;;;16.68;61.08;100999.63;146611;575;46017;-68
2023/11/17 07:53:38;;;;;;;;;17.25;16.25;;;;;16.89;60.53;100991.59;146613;563;46010;-67
2023/11/17 07:56:30;;;;;;;;;19.50;17.25;;;;;17.02;59.90;101001.56;146607;617;47012;-68
2023/11/17 07:59:36;;;;;;;;;;;;;;;;;;;;;
2023/11/17 08:02:37;;;;;;;;;20.00;16.75;;;;;17.41;59.27;101002.66;146608;576;47012;-66
2023/11/17 08:05:20;;;;;;;;;16.00;15.00;;;;;17.57;58.69;100993.47;146708;569;46023;-69
2023/11/17 08:08:19;;;;;;;;;17.00;14.25;;;;;17.78;57.97;100994.09;146617;613;46016;-67
2023/11/17 08:11:15;;;;;;;;;19.50;18.25;;;;;18.03;57.62;100986.84;146616;595;47020;-67
2023/11/17 08:14:11;;;;;;;;;24.75;22.75;;;;;18.32;56.35;100987.59;146606;596;47012;-67
2023/11/17 08:17:07;;;;;;;;;17.00;15.75;;;;;18.44;56.78;100983.50;146618;617;46010;-67
2023/11/17 08:20:18;;;;;;;;;21.25;19.75;;;;;18.56;55.99;100977.62;146618;572;46017;-68
2023/11/17 08:23:25;;;;;;;;;14.75;12.25;;;;;18.73;57.22;100983.31;146622;582;46010;-69
2023/11/17 08:26:24;;;;;;;;;12.50;11.75;;;;;18.96;56.13;100970.66;146616;569;46017;-68
2023/11/17 08:29:21;;;;;;;;;19.25;16.00;;;;;19.17;55.35;100964.97;146622;653;46020;-68
2023/11/17 08:32:29;;;;;;;;;14.00;12.75;;;;;19.39;55.09;100950.47;146618;705;46016;-69
2023/11/17 08:35:22;;;;;;;;;14.00;14.00;;;;;19.66;54.43;100952.78;146619;566;47010;-68
2023/11/17 08:38:16;;;;;;;;;13.50;13.25;;;;;19.89;53.29;100950.53;146618;602;46012;-68
2023/11/17 08:41:12;;;;;;;;;21.00;17.75;;;;;20.01;53.69;100936.69;146620;583;46020;-69
2023/11/17 08:44:04;;;;;;;;;22.50;19.75;;;;;20.06;52.58;100946.44;146617;736;46016;-69
2023/11/17 08:46:59;;;;;;;;;21.00;18.00;;;;;20.03;52.64;100940.22;146618;570;47020;-68
2023/11/17 08:49:59;;;;;;;;;20.50;17.00;;;;;19.98;52.91;100944.53;146615;566;46016;-68
2023/11/17 08:52:55;;;;;;;;;13.75;12.50;;;;;19.95;53.79;100949.75;146617;579;47010;-67
2023/11/17 08:55:56;;;;;;;;;14.50;14.25;;;;;20.01;54.06;100941.97;146618;564;47012;-68
2023/11/17 08:58:51;;;;;;;;;15.00;14.00;;;;;20.08;53.03;100947.34;146616;571;46021;-68
2023/11/17 09:01:49;;;;;;;;;16.50;15.50;;;;;20.17;53.55;100948.34;146617;577;47012;-68
2023/11/17 09:04:46;;;;;;;;;17.25;15.25;;;;;20.24;52.75;100945.81;146615;602;46020;-68
2023/11/17 09:08:01;;;;;;;;;18.50;18.50;;;;;20.33;52.73;100944.19;146608;632;47026;-68
2023/11/17 09:10:54;;;;;;;;;20.00;17.00;;;;;20.44;51.85;100938.22;146611;570;47011;-66
2023/11/17 09:13:49;;;;;;;;;14.50;12.75;;;;;20.49;51.69;100944.44;146608;606;46012;-66
2023/11/17 09:16:45;;;;;;;;;17.00;15.25;;;;;20.57;51.63;100941.97;146614;596;46020;-69
2023/11/17 09:19:42;;;;;;;;;19.25;16.75;;;;;20.71;51.02;100936.84;146609;614;46017;-68
2023/11/17 09:22:35;;;;;;;;;19.50;17.50;;;;;20.85;50.66;100935.28;146612;574;46020;-68
2023/11/17 09:25:30;;;;;;;;;15.75;13.75;;;;;20.91;51.33;100931.84;146609;594;46015;-68
2023/11/17 09:28:22;;;;;;;;;13.25;11.50;;;;;20.94;50.26;100935.41;146614;600;46010;-68
2023/11/17 09:31:16;;;;;;;;;58.00;46.75;;;;;20.63;50.87;100860.37;146609;589;47014;-67
2023/11/17 09:34:19;;;;;;;;;33.25;29.00;;;;;21.15;50.52;100937.44;146609;595;47010;-67
2023/11/17 09:37:12;;;;;;;;;18.25;16.50;;;;;21.29;49.72;100916.47;146607;569;47032;-69
2023/11/17 09:40:18;;;;;;;;;18.25;16.00;;;;;21.37;50.00;100925.37;146610;566;47020;-67
2023/11/17 09:43:25;;;;;;;;;16.00;14.25;;;;;21.47;50.48;100915.81;146610;691;46037;-68
2023/11/17 09:46:25;;;;;;;;;18.25;16.00;;;;;21.51;49.82;100907.03;146610;575;46020;-67
2023/11/17 09:49:29;;;;;;;;;;;;;;;;;;;;;
2023/11/17 09:52:46;;;;;;;;;16.50;13.50;;;;;21.68;50.94;100886.97;146612;566;46020;-68
2023/11/17 09:56:00;;;;;;;;;14.75;13.75;;;;;20.48;50.24;100650.28;146609;637;46917;-67
2023/11/17 09:59:08;;;;;;;;;12.50;11.50;;;;;21.90;48.44;100864.28;146613;645;46021;-67
2023/11/17 10:02:05;;;;;;;;;14.00;12.75;;;;;21.98;48.98;100850.22;146608;580;47017;-68
2023/11/17 10:05:05;;;;;;;;;16.00;13.25;;;;;22.07;49.06;100832.69;146612;672;46021;-67
2023/11/17 10:08:24;;;;;;;;;13.25;11.75;;;;;22.21;49.71;100838.09;146611;565;46016;-68
2023/11/17 10:11:30;;;;;;;;;11.25;10.75;;;;;22.25;49.18;100834.59;146612;733;47012;-69
2023/11/17 10:14:41;;;;;;;;;12.25;10.50;;;;;22.20;49.80;100793.16;146605;614;47012;-67
2023/11/17 10:17:40;;;;;;;;;12.00;11.00;;;;;22.32;46.92;100803.78;146611;696;46010;-68
2023/11/17 10:20:41;;;;;;;;;9.75;9.25;;;;;22.30;47.39;100789.69;146609;636;46016;-68
2023/11/17 10:23:53;;;;;;;;;11.00;9.75;;;;;22.31;48.08;100794.13;146618;690;47010;-68
2023/11/17 10:26:59;;;;;;;;;10.33;9.00;;;;;22.39;49.19;100783.56;146615;576;46035;-68
2023/11/17 10:30:03;;;;;;;;;10.25;7.50;;;;;22.46;48.70;100780.97;146616;685;47020;-68
2023/11/17 10:33:47;;;;;;;;;11.50;10.00;;;;;21.96;49.35;100677.72;146615;669;47014;-69
2023/11/17 10:37:20;;;;;;;;;14.25;12.00;;;;;22.62;48.46;100763.41;146612;665;46020;-68
2023/11/17 10:40:31;;;;;;;;;12.00;11.00;;;;;22.76;47.64;100755.47;146610;643;47012;-68
2023/11/17 10:43:49;;;;;;;;;3.50;2.00;;;;;22.79;47.26;100758.13;146613;707;46020;-68
2023/11/17 10:47:09;;;;;;;;;11.50;11.25;;;;;22.71;48.55;100751.94;146615;632;46016;-68
2023/11/17 10:50:22;;;;;;;;;12.25;10.25;;;;;22.63;48.02;100744.00;146608;659;46020;-67
2023/11/17 10:53:28;;;;;;;;;9.67;9.67;;;;;22.65;48.47;100741.34;146610;576;47012;-69
2023/11/17 10:56:44;;;;;;;;;9.00;8.75;;;;;22.63;47.87;100738.72;146624;689;47010;-69
2023/11/17 10:59:43;;;;;;;;;11.67;9.33;;;;;22.48;47.11;100730.75;146616;620;46014;-68
2023/11/17 11:02:42;;;;;;;;;6.25;6.00;;;;;22.30;48.57;100718.37;146618;694;46021;-69
2023/11/17 11:05:44;;;;;;;;;8.00;7.67;;;;;21.92;49.70;100655.72;146637;590;45915;-67
2023/11/17 11:08:39;;;;;;;;;8.00;8.00;;;;;22.46;49.72;100703.44;146639;615;45020;-67
2023/11/17 11:11:39;;;;;;;;;6.67;5.67;;;;;22.65;47.96;100699.06;146637;589;45016;-68
2023/11/17 11:14:38;;;;;;;;;12.00;8.67;;;;;22.53;46.51;100697.31;146642;582;46010;-68
2023/11/17 11:17:54;;;;;;;;;8.00;8.00;;;;;22.18;50.22;100697.19;146638;573;45915;-68
2023/11/17 11:20:54;;;;;;;;;8.25;8.25;;;;;22.05;47.96;100688.31;146640;573;45020;-68
2023/11/17 11:24:01;;;;;;;;;7.00;7.00;;;;;22.01;50.07;100682.16;146640;578;46012;-68
2023/11/17 11:27:14;;;;;;;;;6.33;6.00;;;;;22.05;50.46;100683.03;146640;573;45020;-68
2023/11/17 11:30:16;;;;;;;;;7.00;6.00;;;;;22.17;49.53;100672.56;146639;596;46014;-66
2023/11/17 11:33:20;;;;;;;;;8.67;8.33;;;;;22.21;49.22;100661.13;146646;569;45010;-66
2023/11/17 11:36:16;;;;;;;;;10.00;6.50;;;;;22.09;49.56;100653.16;146702;564;45037;-68
2023/11/17 11:39:19;;;;;;;;;6.00;5.33;;;;;22.03;48.84;100654.00;146619;563;46012;-67
2023/11/17 11:42:11;;;;;;;;;4.67;4.00;;;;;21.98;49.46;100631.97;146620;594;46020;-67
2023/11/17 11:45:10;;;;;;;;;7.67;6.33;;;;;21.93;49.03;100628.44;146616;590;46028;-67
2023/11/17 11:48:37;;;;;;;;;6.00;5.33;;;;;21.75;51.16;100591.44;146625;609;46030;-68
2023/11/17 11:51:47;;;;;;;;;;;;;;;;;;;;;
2023/11/17 11:54:48;;;;;;;;;8.67;8.33;;;;;21.88;50.83;100612.59;146619;574;48012;-67
2023/11/17 11:57:57;;;;;;;;;;;;;;;;;;;;;
2023/11/17 12:01:05;;;;;;;;;8.00;7.33;;;;;22.10;50.59;100597.69;146622;563;46020;-67
2023/11/17 12:04:20;;;;;;;;;6.33;6.00;;;;;22.26;50.93;100603.03;146619;606;46012;-67
2023/11/17 12:07:43;;;;;;;;;8.33;7.00;;;;;22.51;49.58;100596.00;146625;575;46030;-68
2023/11/17 12:11:04;;;;;;;;;4.00;4.00;;;;;22.68;48.07;100588.06;146621;647;46012;-67
2023/11/17 12:14:22;;;;;;;;;4.00;4.00;;;;;22.66;48.23;100585.44;146623;584;46020;-68
2023/11/17 12:17:17;;;;;;;;;3.67;3.67;;;;;22.42;47.42;100583.66;146614;637;47016;-68
2023/11/17 12:20:56;;;;;;;;;5.33;4.67;;;;;21.85;49.46;100554.50;146619;596;46020;-67
2023/11/17 12:24:08;;;;;;;;;6.00;6.00;;;;;21.63;49.70;100574.69;146706;564;47014;-67
2023/11/17 12:27:06;;;;;;;;;5.00;4.00;;;;;20.77;49.86;100463.50;146626;579;46016;-67
2023/11/17 12:30:12;;;;;;;;;6.00;5.00;;;;;21.28;50.59;100565.69;146632;647;46021;-66
2023/11/17 12:33:15;;;;;;;;;6.00;5.00;;;;;21.17;50.33;100563.00;146627;563;46017;-68
2023/11/17 12:36:35;;;;;;;;;5.67;5.33;;;;;21.14;50.56;100544.53;146632;587;46012;-70
2023/11/17 12:39:49;;;;;;;;;5.33;5.33;;;;;21.21;51.03;100552.50;146627;581;46017;-67
2023/11/17 12:43:09;;;;;;;;;4.33;4.33;;;;;21.44;49.38;100538.56;146632;590;46020;-69
2023/11/17 12:46:23;;;;;;;;;4.33;4.33;;;;;20.64;50.41;100361.56;146626;566;46017;-66
2023/11/17 12:49:24;;;;;;;;;5.00;5.00;;;;;21.82;48.72;100532.50;146629;630;47010;-66
2023/11/17 12:52:20;;;;;;;;;7.00;7.00;;;;;21.52;49.95;100443.59;146628;616;46012;-67
2023/11/17 12:55:15;;;;;;;;;4.00;4.00;;;;;22.44;47.43;100538.78;146628;674;46012;-67
2023/11/17 12:58:19;;;;;;;;;4.00;3.00;;;;;22.69;45.12;100534.34;146628;595;46016;-68
2023/11/17 13:01:29;;;;;;;;;4.00;4.00;;;;;22.74;46.32;100528.19;146631;576;46011;-67
2023/11/17 13:04:25;;;;;;;;;5.33;4.00;;;;;22.79;44.93;100526.38;146627;593;46016;-68
2023/11/17 13:07:41;;;;;;;;;5.00;5.00;;;;;22.74;45.01;100525.53;146629;572;46011;-67
2023/11/17 13:10:50;;;;;;;;;5.33;4.67;;;;;22.09;47.10;100407.59;146626;581;47012;-67
2023/11/17 13:14:13;;;;;;;;;3.67;3.67;;;;;22.24;45.58;100404.06;146629;623;46020;-68
2023/11/17 13:17:29;;;;;;;;;10.67;8.00;;;;;22.88;43.95;100508.75;146623;587;47031;-70
2023/11/17 13:20:33;;;;;;;;;4.00;4.00;;;;;22.91;42.34;100514.03;146623;578;46020;-68
2023/11/17 13:23:56;;;;;;;;;3.00;3.00;;;;;22.90;40.75;100502.59;146640;685;46013;-69
2023/11/17 13:26:53;;;;;;;;;4.67;4.00;;;;;22.83;41.88;100500.81;146643;588;45020;-69
2023/11/17 13:30:02;;;;;;;;;6.00;5.00;;;;;22.68;41.96;100485.91;146641;588;45015;-69
2023/11/17 13:32:59;;;;;;;;;6.67;6.33;;;;;22.70;42.17;100484.09;146646;639;46010;-68
2023/11/17 13:36:05;;;;;;;;;8.00;8.00;;;;;22.64;43.89;100488.53;146640;670;45012;-68
2023/11/17 13:39:26;;;;;;;;;7.33;6.00;;;;;22.32;45.44;100468.31;146643;687;45021;-69
2023/11/17 13:42:38;;;;;;;;;7.67;6.00;;;;;22.04;46.48;100467.41;146640;563;45016;-70
2023/11/17 13:45:42;;;;;;;;;10.33;9.67;;;;;21.79;45.63;100472.69;146642;613;45021;-68
2023/11/17 13:48:52;;;;;;;;;10.75;10.00;;;;;21.00;46.63;100388.94;146635;701;46016;-71
2023/11/17 13:51:48;;;;;;;;;9.33;9.00;;;;;21.26;47.31;100459.31;146638;626;46013;-70
2023/11/17 13:54:54;;;;;;;;;9.33;9.33;;;;;21.28;47.37;100455.81;146635;633;45016;-69
2023/11/17 13:57:58;;;;;;;;;9.33;8.00;;;;;21.51;46.33;100442.72;146644;585;45020;-69
2023/11/17 14:01:07;;;;;;;;;6.00;5.33;;;;;21.72;46.19;100455.09;146640;564;45016;-69
2023/11/17 14:04:19;;;;;;;;;7.33;5.33;;;;;21.66;43.75;100442.75;146646;609;46010;-72
2023/11/17 14:07:15;;;;;;;;;4.33;4.33;;;;;21.36;43.45;100443.56;146641;610;45033;-71
2023/11/17 14:10:26;;;;;;;;;5.00;4.33;;;;;21.12;44.73;100449.63;146645;584;45020;-71